Time;durP1;ratioP1;P1;durP2;ratioP2;P2;SDS_P1;SDS_P2;PMS_P1;PMS_P2;Temp;Humidity;BMP_temperature;BMP_pressure;BME280_temperature;BME280_humidity;BME280_pressure;Samples;Min_cycle;Max_cycle;Signal;HPM_P1;HPM_P2
2022/09/14 04:02:19;;;;;;;10.03;3.90;;;13.40;96.30;;;;;;5071360;23;21016;-79
2022/09/14 04:04:47;;;;;;;3.97;3.57;;;13.40;96.30;;;;;;4977781;28;20437;-80
2022/09/14 04:07:13;;;;;;;3.93;3.37;;;13.40;96.30;;;;;;4977833;28;20194;-81
2022/09/14 04:09:39;;;;;;;4.40;3.17;;;13.40;96.30;;;;;;4992064;28;20469;-80
2022/09/14 04:12:05;;;;;;;3.50;3.20;;;13.40;96.30;;;;;;4976088;28;20446;-80
2022/09/14 04:14:30;;;;;;;5.90;3.93;;;13.40;96.30;;;;;;4974172;28;20199;-78
2022/09/14 04:16:56;;;;;;;5.97;3.83;;;13.30;96.30;;;;;;4956687;28;20179;-79
2022/09/14 04:19:21;;;;;;;4.70;3.63;;;13.30;96.30;;;;;;4954531;29;20175;-79
2022/09/14 04:21:47;;;;;;;5.90;3.43;;;13.30;96.30;;;;;;4956656;28;20554;-80
2022/09/14 04:24:13;;;;;;;4.33;3.67;;;13.30;96.30;;;;;;4956610;28;20178;-81
2022/09/14 04:26:39;;;;;;;4.07;3.10;;;13.30;96.30;;;;;;4942382;29;20188;-80
2022/09/14 04:29:04;;;;;;;4.93;3.07;;;13.30;96.30;;;;;;4936295;29;20947;-80
2022/09/14 04:31:31;;;;;;;3.40;3.10;;;13.40;96.30;;;;;;4939032;29;20246;-81
2022/09/14 04:33:56;;;;;;;3.40;2.80;;;13.50;96.30;;;;;;4939733;29;20172;-78
2022/09/14 04:36:29;;;;;;;6.63;3.50;;;13.60;96.30;;;;;;4954231;29;20418;-79
2022/09/14 04:38:56;;;;;;;3.80;3.20;;;13.60;96.30;;;;;;4955721;28;20161;-82
2022/09/14 04:41:22;;;;;;;5.43;3.23;;;13.60;96.30;;;;;;4949745;28;20457;-81
2022/09/14 04:43:49;;;;;;;4.80;3.80;;;13.60;96.30;;;;;;4958894;29;20422;-81
2022/09/14 04:46:17;;;;;;;10.73;3.43;;;13.60;96.30;;;;;;4959748;28;20179;-80
2022/09/14 04:48:43;;;;;;;4.30;3.30;;;13.60;96.30;;;;;;4960375;28;20462;-80
2022/09/14 04:51:17;;;;;;;4.27;3.30;;;13.70;96.30;;;;;;4958979;28;20430;-80
2022/09/14 04:53:45;;;;;;;4.87;3.33;;;13.80;96.30;;;;;;4959113;28;20193;-79
2022/09/14 04:56:11;;;;;;;5.73;3.47;;;13.80;96.30;;;;;;4958909;28;20410;-81
2022/09/14 04:58:40;;;;;;;9.53;2.73;;;13.90;96.30;;;;;;4957625;28;20546;-81
2022/09/14 05:01:13;;;;;;;4.20;3.20;;;13.90;96.30;;;;;;4958198;28;20454;-81
2022/09/14 05:03:39;;;;;;;3.73;3.43;;;14.00;96.30;;;;;;4958285;28;20403;-82
2022/09/14 05:06:08;;;;;;;4.07;3.50;;;13.90;96.30;;;;;;4957795;28;20447;-81
2022/09/14 05:08:35;;;;;;;4.23;3.87;;;13.90;96.30;;;;;;4956383;28;20466;-81
2022/09/14 05:11:01;;;;;;;7.17;3.73;;;13.90;96.30;;;;;;4955628;28;20976;-81
2022/09/14 05:13:27;;;;;;;4.00;3.60;;;13.90;96.30;;;;;;4958257;28;20502;-80
2022/09/14 05:15:52;;;;;;;4.33;3.47;;;13.90;96.30;;;;;;4959273;28;20266;-80
2022/09/14 05:18:18;;;;;;;4.50;2.97;;;13.90;96.30;;;;;;4959919;28;20182;-80
2022/09/14 05:20:44;;;;;;;4.00;3.70;;;13.80;96.30;;;;;;4958998;28;20242;-80
2022/09/14 05:23:10;;;;;;;3.77;3.00;;;13.80;96.30;;;;;;4956510;28;20646;-80
2022/09/14 05:25:35;;;;;;;8.63;3.00;;;13.70;96.30;;;;;;4955152;29;20544;-79
2022/09/14 05:28:01;;;;;;;4.30;3.50;;;13.70;96.30;;;;;;4954712;28;20246;-79
2022/09/14 05:30:26;;;;;;;6.10;3.40;;;13.70;96.30;;;;;;4956188;28;20594;-80
2022/09/14 05:32:52;;;;;;;6.30;3.50;;;13.70;96.30;;;;;;4955736;28;20725;-80
2022/09/14 05:35:18;;;;;;;4.13;3.53;;;13.70;96.30;;;;;;4955753;28;20175;-80
2022/09/14 05:37:43;;;;;;;6.57;3.63;;;13.70;96.30;;;;;;4956137;28;20654;-82
2022/09/14 05:40:10;;;;;;;4.57;3.77;;;13.70;96.30;;;;;;4953475;28;20537;-80
2022/09/14 05:42:35;;;;;;;6.43;3.30;;;13.70;96.30;;;;;;4937394;29;20171;-80
2022/09/14 05:45:00;;;;;;;6.20;3.80;;;13.70;96.30;;;;;;4933393;29;20488;-80
2022/09/14 05:47:30;;;;;;;4.63;3.37;;;13.80;96.30;;;;;;4927270;29;20303;-80
2022/09/14 05:49:55;;;;;;;8.97;3.40;;;13.80;96.30;;;;;;4917420;29;20688;-80
2022/09/14 05:52:21;;;;;;;5.00;4.43;;;13.80;96.30;;;;;;4917726;29;20436;-79
2022/09/14 05:54:46;;;;;;;5.80;5.13;;;13.90;96.30;;;;;;4918465;29;20180;-80
2022/09/14 05:57:12;;;;;;;7.30;6.60;;;13.90;96.30;;;;;;4917547;29;20181;-80
2022/09/14 05:59:37;;;;;;;5.83;4.90;;;13.90;96.30;;;;;;4921723;29;20285;-81
2022/09/14 06:02:03;;;;;;;5.40;4.90;;;14.00;96.30;;;;;;4920543;29;20238;-85
2022/09/14 06:04:29;;;;;;;5.13;4.73;;;14.10;96.30;;;;;;4927552;29;20194;-80
2022/09/14 06:06:54;;;;;;;5.13;4.53;;;14.10;96.30;;;;;;4931255;29;20225;-81
2022/09/14 06:09:20;;;;;;;5.60;4.10;;;14.20;96.30;;;;;;4932147;29;20187;-80
2022/09/14 06:11:45;;;;;;;7.70;4.20;;;14.30;96.30;;;;;;4933018;29;20687;-82
2022/09/14 06:14:11;;;;;;;4.97;3.83;;;14.40;96.30;;;;;;4925253;29;20216;-82
2022/09/14 06:16:36;;;;;;;8.97;5.10;;;14.40;96.30;;;;;;4927031;29;20172;-79
2022/09/14 06:19:02;;;;;;;5.97;5.40;;;14.50;96.30;;;;;;4932644;29;20190;-84
2022/09/14 06:21:33;;;;;;;5.30;4.80;;;14.40;96.30;;;;;;4929617;29;20617;-81
2022/09/14 06:23:59;;;;;;;77.60;70.10;;;14.50;96.30;;;;;;4935576;29;20899;-80
2022/09/14 06:26:25;;;;;;;20.63;18.07;;;14.40;96.30;;;;;;4935888;29;20430;-80
2022/09/14 06:28:51;;;;;;;9.90;8.97;;;14.40;96.30;;;;;;4934232;29;20218;-80
2022/09/14 06:31:21;;;;;;;4.70;4.30;;;14.40;96.30;;;;;;4935739;29;20195;-80
2022/09/14 06:33:47;;;;;;;10.23;5.67;;;14.40;96.30;;;;;;4933567;29;20584;-80
2022/09/14 06:36:16;;;;;;;4.73;4.33;;;14.40;96.30;;;;;;4933475;29;20479;-80
2022/09/14 06:38:43;;;;;;;6.57;5.97;;;14.50;96.30;;;;;;4933815;29;20975;-80
2022/09/14 06:41:11;;;;;;;6.80;5.27;;;14.50;96.30;;;;;;4935037;29;20814;-80
2022/09/14 06:43:38;;;;;;;5.90;5.37;;;14.60;96.30;;;;;;4934512;29;20431;-80
2022/09/14 06:46:12;;;;;;;12.70;6.67;;;14.70;96.30;;;;;;4932867;29;20946;-80
2022/09/14 06:49:08;;;;;;;7.47;6.43;;;14.70;96.30;;;;;;4934750;29;20466;-81
2022/09/14 06:51:36;;;;;;;32.93;26.30;;;14.90;96.30;;;;;;4935204;29;21018;-80
2022/09/14 06:54:03;;;;;;;9.77;8.60;;;14.90;96.30;;;;;;4935951;29;20419;-82
2022/09/14 06:56:34;;;;;;;10.63;7.30;;;14.90;96.30;;;;;;4933223;29;20436;-80
2022/09/14 06:59:00;;;;;;;6.07;4.07;;;14.80;96.30;;;;;;4936044;29;20486;-81
2022/09/14 07:01:26;;;;;;;5.50;3.77;;;14.90;96.30;;;;;;4935480;29;20987;-80
2022/09/14 07:03:52;;;;;;;4.13;3.73;;;15.00;96.30;;;;;;4935370;29;21023;-80
2022/09/14 07:06:20;;;;;;;5.63;4.67;;;15.00;96.30;;;;;;4938957;29;20191;-80
2022/09/14 07:08:47;;;;;;;8.13;4.40;;;15.10;96.30;;;;;;4942870;29;20458;-80
2022/09/14 07:11:14;;;;;;;5.33;4.83;;;15.10;96.30;;;;;;4940012;29;20431;-80
2022/09/14 07:13:40;;;;;;;4.90;4.50;;;15.20;96.30;;;;;;4937168;29;20435;-81
2022/09/14 07:16:07;;;;;;;6.63;4.90;;;15.30;96.30;;;;;;4928281;29;20442;-80
2022/09/14 07:18:33;;;;;;;9.30;5.37;;;15.30;96.30;;;;;;4938822;29;20345;-81
2022/09/14 07:21:06;;;;;;;4.70;4.13;;;15.40;96.30;;;;;;4936822;29;20447;-80
2022/09/14 07:23:33;;;;;;;4.17;3.77;;;15.50;96.30;;;;;;4936289;29;20431;-81
2022/09/14 07:26:07;;;;;;;8.40;3.80;;;15.50;96.30;;;;;;4934150;29;20435;-79
2022/09/14 07:28:32;;;;;;;4.03;3.67;;;15.50;96.30;;;;;;4937122;29;20463;-80
2022/09/14 07:30:58;;;;;;;7.13;4.17;;;15.50;96.30;;;;;;4932492;29;20446;-80
2022/09/14 07:33:24;;;;;;;4.87;4.43;;;15.50;96.30;;;;;;4936125;29;20188;-79
2022/09/14 07:35:51;;;;;;;5.57;5.07;;;15.50;96.30;;;;;;4936239;29;20486;-80
2022/09/14 07:38:17;;;;;;;4.60;4.20;;;15.50;96.30;;;;;;4933860;29;20199;-79
2022/09/14 07:40:43;;;;;;;4.87;4.10;;;15.50;96.30;;;;;;4935921;29;20454;-79
2022/09/14 07:43:09;;;;;;;4.70;4.20;;;15.60;96.30;;;;;;4934691;29;20427;-79
2022/09/14 07:45:36;;;;;;;3.73;3.43;;;15.70;96.30;;;;;;4934996;29;20295;-80
2022/09/14 07:48:01;;;;;;;7.47;4.03;;;15.60;96.30;;;;;;4931638;29;20463;-79
2022/09/14 07:50:27;;;;;;;4.40;4.10;;;15.60;96.30;;;;;;4934075;29;20432;-78
2022/09/14 07:52:52;;;;;;;4.67;3.60;;;15.50;96.30;;;;;;4923085;29;20188;-81
2022/09/14 07:55:18;;;;;;;4.73;4.00;;;15.50;96.30;;;;;;4933637;29;20254;-78
2022/09/14 07:57:45;;;;;;;5.23;4.80;;;15.50;96.30;;;;;;4949379;28;20180;-78
2022/09/14 08:00:11;;;;;;;6.27;3.60;;;15.50;96.30;;;;;;4933065;29;20670;-81
2022/09/14 08:02:36;;;;;;;4.40;4.00;;;15.50;96.30;;;;;;4928989;29;20594;-80
2022/09/14 08:05:02;;;;;;;5.07;4.50;;;15.40;96.30;;;;;;4931553;29;21014;-81
2022/09/14 08:07:28;;;;;;;5.40;4.17;;;15.40;96.30;;;;;;4934479;29;20203;-77
2022/09/14 08:09:53;;;;;;;4.20;3.80;;;15.50;96.30;;;;;;4933686;29;20211;-80
2022/09/14 08:12:19;;;;;;;3.40;3.10;;;15.50;96.30;;;;;;4934321;29;20200;-77
2022/09/14 08:14:44;;;;;;;4.47;4.07;;;15.60;96.30;;;;;;4933857;29;20179;-77
2022/09/14 08:17:10;;;;;;;5.30;4.43;;;15.70;96.30;;;;;;4935213;29;20301;-78
2022/09/14 08:19:36;;;;;;;5.13;3.93;;;15.80;96.30;;;;;;4934490;29;20701;-79
2022/09/14 08:22:03;;;;;;;5.17;4.67;;;15.90;96.30;;;;;;4935224;29;20542;-78
2022/09/14 08:24:29;;;;;;;3.97;3.57;;;15.90;96.30;;;;;;4931677;29;20419;-77
2022/09/14 08:26:55;;;;;;;6.10;4.27;;;16.00;96.30;;;;;;4935739;29;20419;-77
2022/09/14 08:29:21;;;;;;;5.33;4.17;;;16.00;96.30;;;;;;4935209;29;20420;-77
2022/09/14 08:31:47;;;;;;;5.20;4.77;;;16.00;96.30;;;;;;4935521;29;20448;-77
2022/09/14 08:34:14;;;;;;;5.27;4.77;;;16.00;96.30;;;;;;4934742;29;20210;-78
2022/09/14 08:36:41;;;;;;;5.53;5.03;;;16.00;96.30;;;;;;4935350;29;20411;-77
2022/09/14 08:39:09;;;;;;;4.93;4.53;;;15.90;96.30;;;;;;4934254;29;20557;-78
2022/09/14 08:41:44;;;;;;;4.80;4.30;;;15.90;96.30;;;;;;4934468;29;20482;-77
2022/09/14 08:44:18;;;;;;;5.47;4.90;;;15.80;96.30;;;;;;4948869;29;20438;-77
2022/09/14 08:46:49;;;;;;;6.73;4.60;;;15.80;96.30;;;;;;4933648;29;20429;-76
2022/09/14 08:49:27;;;;;;;9.67;4.30;;;15.80;96.30;;;;;;4933589;29;20447;-77
2022/09/14 08:51:54;;;;;;;5.90;4.20;;;15.80;96.30;;;;;;4930553;29;20435;-83
2022/09/14 08:54:19;;;;;;;6.73;4.10;;;15.90;96.30;;;;;;4924188;29;20412;-77
2022/09/14 08:56:52;;;;;;;5.30;4.90;;;16.00;96.30;;;;;;4934147;29;20938;-77
2022/09/14 08:59:37;;;;;;;5.00;4.60;;;16.00;96.30;;;;;;4938515;29;20558;-76
2022/09/14 09:02:39;;;;;;;5.77;4.93;;;16.00;96.30;;;;;;4932250;29;20469;-80
2022/09/14 09:05:13;;;;;;;4.17;3.80;;;16.00;96.30;;;;;;4930758;29;20418;-78
2022/09/14 09:07:52;;;;;;;6.30;4.63;;;16.10;96.30;;;;;;4931908;29;20552;-77
2022/09/14 09:10:19;;;;;;;8.17;5.33;;;16.10;96.30;;;;;;4930908;29;20426;-80
2022/09/14 09:12:52;;;;;;;10.90;7.23;;;16.00;96.30;;;;;;4920852;29;20429;-77
2022/09/14 09:15:44;;;;;;;7.37;6.10;;;16.10;96.30;;;;;;4931762;29;20525;-78
2022/09/14 09:18:20;;;;;;;7.90;4.93;;;16.10;96.30;;;;;;4930934;29;20419;-78
2022/09/14 09:20:53;;;;;;;6.40;4.40;;;16.10;96.30;;;;;;4932888;29;20794;-77
2022/09/14 09:23:21;;;;;;;5.60;5.00;;;16.20;96.30;;;;;;4933477;29;20600;-77
2022/09/14 09:25:59;;;;;;;5.87;5.30;;;16.20;96.30;;;;;;4932828;29;20439;-76
2022/09/14 09:28:27;;;;;;;5.90;4.90;;;16.30;96.30;;;;;;4932069;29;20526;-76
2022/09/14 09:30:59;;;;;;;5.90;4.80;;;16.40;96.30;;;;;;4929808;29;20486;-75
2022/09/14 09:33:26;;;;;;;8.60;4.90;;;16.40;96.30;;;;;;4932216;29;20446;-77
2022/09/14 09:35:53;;;;;;;6.20;4.43;;;16.40;96.30;;;;;;4932563;29;20434;-80
2022/09/14 09:38:24;;;;;;;4.93;4.53;;;16.50;96.30;;;;;;4932023;29;20466;-78
2022/09/14 09:41:04;;;;;;;5.03;3.90;;;16.50;96.30;;;;;;4933324;29;20443;-76
2022/09/14 09:43:30;;;;;;;5.90;3.93;;;16.60;96.30;;;;;;4933262;29;20407;-82
2022/09/14 09:46:00;;;;;;;4.27;3.97;;;16.70;96.30;;;;;;4932064;29;20429;-76
2022/09/14 09:48:32;;;;;;;5.03;4.53;;;16.80;96.30;;;;;;4931951;29;20196;-76
2022/09/14 09:51:07;;;;;;;6.60;5.07;;;16.90;96.30;;;;;;4933646;29;20435;-76
2022/09/14 09:53:35;;;;;;;7.10;6.17;;;16.90;96.30;;;;;;4927617;29;21103;-76
2022/09/14 09:56:02;;;;;;;5.40;4.90;;;16.90;96.30;;;;;;4930320;29;20428;-76
2022/09/14 09:58:37;;;;;;;5.37;4.87;;;16.80;96.30;;;;;;4931089;29;20849;-76
2022/09/14 10:01:17;;;;;;;6.07;5.17;;;16.80;96.30;;;;;;4933160;29;20541;-78
2022/09/14 10:03:50;;;;;;;7.43;5.00;;;16.80;96.30;;;;;;4918344;29;20427;-75
2022/09/14 10:06:15;;;;;;;5.20;4.63;;;16.80;96.30;;;;;;4932925;29;20407;-78
2022/09/14 10:08:44;;;;;;;4.53;4.13;;;16.90;96.30;;;;;;4931824;29;20470;-75
2022/09/14 10:11:35;;;;;;;3.40;3.13;;;16.80;96.30;;;;;;4929110;29;20214;-77
2022/09/14 10:14:02;;;;;;;4.17;3.77;;;16.90;96.30;;;;;;4922529;29;20423;-75
2022/09/14 10:16:41;;;;;;;2.43;2.23;;;17.10;96.30;;;;;;4926607;29;20451;-76
2022/09/14 10:19:25;;;;;;;1.37;1.23;;;17.30;96.30;;;;;;4924543;29;20415;-76
2022/09/14 10:22:26;;;;;;;1.73;1.20;;;17.60;96.30;;;;;;4931546;29;20506;-76
2022/09/14 10:24:58;;;;;;;2.13;1.27;;;17.70;96.30;;;;;;4935998;29;20518;-79
2022/09/14 10:27:56;;;;;;;1.40;0.90;;;17.80;96.30;;;;;;4938939;29;20498;-76
2022/09/14 11:37:47;;;;;;;2.03;1.40;;;17.10;96.30;;;;;;5203946;23;21012;-77
2022/09/14 11:40:21;;;;;;;2.43;1.60;;;17.10;96.30;;;;;;4969765;28;20960;-77
2022/09/14 11:43:14;;;;;;;2.13;1.50;;;17.10;96.30;;;;;;4966373;28;20448;-79
2022/09/14 11:45:47;;;;;;;2.80;1.40;;;17.10;96.30;;;;;;4970304;28;20432;-77
2022/09/14 11:48:48;;;;;;;2.17;1.30;;;17.20;96.30;;;;;;4970572;28;20868;-76
2022/09/14 11:51:25;;;;;;;2.57;1.30;;;17.20;96.30;;;;;;4973754;28;20444;-78
2022/09/14 11:53:51;;;;;;;1.33;1.10;;;17.10;96.30;;;;;;4972119;28;20414;-76
2022/09/14 11:56:26;;;;;;;1.73;1.20;;;17.20;96.30;;;;;;4972160;28;20448;-76
2022/09/14 11:58:55;;;;;;;3.60;1.70;;;17.20;96.30;;;;;;4971301;28;20200;-76
2022/09/14 12:01:36;;;;;;;1.67;1.20;;;17.30;96.30;;;;;;4973363;28;20500;-77
2022/09/14 12:04:16;;;;;;;3.57;1.30;;;17.30;96.30;;;;;;4963236;28;20428;-79
2022/09/14 12:06:46;;;;;;;2.23;1.30;;;17.30;96.30;;;;;;4970587;28;20417;-77
2022/09/14 12:09:19;;;;;;;1.30;0.90;;;17.30;96.30;;;;;;4972345;28;20453;-79
2022/09/14 12:11:47;;;;;;;1.27;1.00;;;17.30;96.30;;;;;;4971833;28;20533;-77
2022/09/14 12:14:29;;;;;;;1.10;1.00;;;17.30;96.30;;;;;;4972642;28;20414;-77
2022/09/14 12:17:16;;;;;;;2.40;1.33;;;17.40;96.30;;;;;;4975113;28;20445;-77
2022/09/14 12:19:43;;;;;;;1.07;0.87;;;17.30;96.30;;;;;;4962068;28;20430;-77
2022/09/14 12:22:32;;;;;;;1.30;0.97;;;17.20;96.30;;;;;;4972489;28;20455;-79
2022/09/14 12:25:09;;;;;;;0.93;0.83;;;17.40;96.30;;;;;;4973097;28;20449;-79
2022/09/14 12:27:41;;;;;;;1.20;0.90;;;17.40;96.30;;;;;;4971765;28;20492;-80
2022/09/14 12:30:32;;;;;;;1.20;1.00;;;17.60;96.30;;;;;;4972387;28;20476;-78
2022/09/14 12:32:58;;;;;;;2.23;1.10;;;17.60;96.30;;;;;;4969996;28;20483;-79
2022/09/14 12:35:38;;;;;;;1.10;0.90;;;17.50;96.30;;;;;;4972665;28;20500;-78
2022/09/14 12:38:30;;;;;;;1.67;1.30;;;17.50;96.30;;;;;;4970168;28;20444;-79
2022/09/14 12:41:09;;;;;;;1.40;0.90;;;17.50;96.30;;;;;;4972123;28;20991;-78
2022/09/14 12:43:34;;;;;;;1.80;1.10;;;17.50;96.30;;;;;;4968627;28;20508;-77
2022/09/14 12:46:04;;;;;;;2.80;2.60;;;17.50;96.30;;;;;;4975643;28;20508;-80
2022/09/14 12:48:47;;;;;;;2.73;1.53;;;17.40;96.30;;;;;;4976791;28;20233;-81
2022/09/14 12:51:29;;;;;;;1.30;0.90;;;17.30;96.30;;;;;;4970303;28;20492;-78
2022/09/14 12:54:00;;;;;;;5.33;0.77;;;17.40;96.30;;;;;;4973582;28;20402;-78
2022/09/14 12:56:30;;;;;;;0.80;0.70;;;17.40;96.30;;;;;;4971908;28;20432;-79
2022/09/14 12:59:09;;;;;;;3.30;1.00;;;17.50;96.30;;;;;;4971859;28;20428;-79
2022/09/14 13:01:38;;;;;;;1.13;1.00;;;17.40;96.30;;;;;;4970887;28;20433;-79
2022/09/14 13:04:11;;;;;;;1.10;0.87;;;17.50;96.30;;;;;;4964439;28;20457;-80
2022/09/14 13:06:42;;;;;;;1.00;0.80;;;17.50;96.30;;;;;;4966297;28;20413;-78
2022/09/14 13:09:19;;;;;;;2.93;0.70;;;17.60;96.30;;;;;;4968271;28;20458;-78
2022/09/14 13:11:46;;;;;;;2.13;0.70;;;17.70;96.30;;;;;;4971559;28;20439;-78
2022/09/14 13:14:17;;;;;;;0.90;0.70;;;17.80;96.30;;;;;;4972084;28;20422;-81
2022/09/14 13:16:46;;;;;;;1.53;0.73;;;17.90;96.30;;;;;;4958360;28;20429;-78
2022/09/14 13:19:26;;;;;;;1.00;0.90;;;17.90;96.30;;;;;;4971770;28;20425;-79
2022/09/14 13:21:54;;;;;;;1.10;0.90;;;17.90;96.30;;;;;;4971152;28;20473;-79
2022/09/14 13:24:31;;;;;;;1.43;1.10;;;18.00;96.30;;;;;;4969816;28;20512;-78
2022/09/14 13:26:59;;;;;;;6.20;1.37;;;18.00;96.30;;;;;;4970156;28;20417;-78
2022/09/14 13:29:25;;;;;;;1.30;1.00;;;18.00;96.30;;;;;;4974475;28;20842;-76
2022/09/14 13:31:52;;;;;;;1.10;0.97;;;17.90;96.30;;;;;;4973540;28;20504;-80
2022/09/14 13:34:28;;;;;;;1.10;0.93;;;18.00;96.30;;;;;;4978354;28;20509;-78
2022/09/14 13:36:55;;;;;;;1.00;0.80;;;18.10;96.30;;;;;;4955116;28;20465;-79
2022/09/14 13:39:34;;;;;;;1.10;0.90;;;18.10;96.30;;;;;;4955296;29;20415;-79
2022/09/14 13:42:01;;;;;;;1.70;1.43;;;18.00;96.30;;;;;;4975670;28;20442;-79
2022/09/14 13:44:45;;;;;;;2.80;2.23;;;18.20;96.30;;;;;;4959687;28;20842;-79
2022/09/14 13:47:17;;;;;;;2.30;1.90;;;18.40;96.30;;;;;;4964822;28;20425;-79
2022/09/14 13:49:44;;;;;;;4.40;2.50;;;18.50;96.30;;;;;;4970449;28;20423;-78
2022/09/14 13:52:28;;;;;;;1.20;1.07;;;18.50;96.30;;;;;;4953397;29;20446;-78
2022/09/14 13:55:32;;;;;;;1.27;0.80;;;18.40;96.30;;;;;;4955098;29;20398;-79
2022/09/14 13:58:12;;;;;;;1.27;0.80;;;18.40;96.30;;;;;;4955123;28;20429;-79
2022/09/14 14:00:49;;;;;;;1.27;0.90;;;18.60;96.30;;;;;;4955358;28;20439;-79
2022/09/14 14:03:34;;;;;;;1.73;1.00;;;18.60;96.30;;;;;;4954236;28;20462;-80
2022/09/14 14:06:20;;;;;;;2.40;1.00;;;18.80;96.30;;;;;;4971191;28;20826;-79
2022/09/14 14:09:01;;;;;;;6.30;1.07;;;19.00;96.30;;;;;;4974739;28;20453;-79
2022/09/14 14:11:30;;;;;;;1.43;1.00;;;19.10;96.30;;;;;;4974385;28;20516;-80
2022/09/14 14:14:09;;;;;;;1.10;1.00;;;19.20;96.30;;;;;;4975083;28;20410;-80
2022/09/14 14:16:34;;;;;;;6.30;1.10;;;19.10;96.30;;;;;;4974194;28;20536;-79
2022/09/14 14:19:00;;;;;;;1.40;0.90;;;19.00;96.30;;;;;;4971945;28;20541;-80
2022/09/14 14:21:31;;;;;;;1.30;1.20;;;18.80;96.30;;;;;;4975107;28;20578;-79
2022/09/14 14:24:34;;;;;;;2.17;1.00;;;18.60;96.30;;;;;;4961338;28;20179;-79
2022/09/14 14:27:00;;;;;;;4.33;1.27;;;18.50;96.30;;;;;;4914378;29;21007;-79
2022/09/14 14:29:25;;;;;;;1.60;1.20;;;18.40;96.30;;;;;;4942224;29;20526;-79
2022/09/14 14:31:53;;;;;;;2.07;0.97;;;18.40;96.30;;;;;;4967366;28;20202;-80
2022/09/14 14:34:22;;;;;;;1.37;1.17;;;18.30;96.30;;;;;;4972597;28;20379;-80
2022/09/14 14:36:49;;;;;;;2.10;1.10;;;18.30;96.30;;;;;;4973329;28;20488;-80
2022/09/14 14:39:16;;;;;;;1.50;1.00;;;18.30;96.30;;;;;;4973481;28;20410;-80
2022/09/14 14:41:42;;;;;;;1.93;1.27;;;18.30;96.30;;;;;;4986317;28;20444;-80
2022/09/14 14:44:14;;;;;;;2.30;1.10;;;17.90;96.30;;;;;;4991645;28;20420;-82
2022/09/14 14:46:41;;;;;;;1.03;0.93;;;17.90;96.30;;;;;;4992874;28;20625;-81
2022/09/14 14:49:14;;;;;;;1.37;1.00;;;17.90;96.30;;;;;;4992805;28;20515;-81
2022/09/14 14:51:40;;;;;;;1.10;1.00;;;17.80;96.30;;;;;;4993164;28;20437;-81
2022/09/14 14:54:07;;;;;;;2.17;1.10;;;17.80;96.30;;;;;;4992778;28;20547;-80
2022/09/14 14:56:33;;;;;;;1.20;1.00;;;17.80;96.30;;;;;;4974286;28;20483;-81
2022/09/14 14:58:59;;;;;;;1.10;0.90;;;17.80;96.30;;;;;;4973469;28;20918;-81
2022/09/14 15:01:25;;;;;;;1.40;1.20;;;17.70;96.30;;;;;;4973337;28;20480;-81
2022/09/14 15:03:50;;;;;;;1.20;1.07;;;17.70;96.30;;;;;;4974135;28;20269;-81
2022/09/14 15:06:22;;;;;;;0.90;0.70;;;17.60;96.30;;;;;;4974123;28;20207;-81
2022/09/14 15:08:54;;;;;;;1.10;1.00;;;17.60;96.30;;;;;;4977286;28;20277;-81
2022/09/14 15:11:21;;;;;;;1.87;1.03;;;17.50;96.30;;;;;;4984294;28;20499;-81
2022/09/14 15:13:46;;;;;;;1.43;1.33;;;17.50;96.30;;;;;;4973547;28;20445;-80
2022/09/14 15:16:13;;;;;;;1.20;1.10;;;17.40;96.30;;;;;;4973141;28;20457;-81
2022/09/14 15:18:39;;;;;;;2.43;1.00;;;17.30;96.30;;;;;;4972209;28;20654;-81
2022/09/14 15:21:05;;;;;;;1.23;1.13;;;17.30;96.30;;;;;;4973380;28;20429;-81
2022/09/14 15:23:31;;;;;;;1.93;1.07;;;17.30;96.30;;;;;;4975475;28;20414;-82
2022/09/14 15:25:57;;;;;;;1.10;1.00;;;17.20;96.30;;;;;;4964013;28;20550;-81
2022/09/14 15:28:22;;;;;;;1.20;1.07;;;17.10;96.30;;;;;;4976451;28;20279;-81
2022/09/14 15:30:48;;;;;;;1.43;1.20;;;17.10;96.30;;;;;;4996061;28;20202;-81
2022/09/14 15:33:13;;;;;;;1.43;1.17;;;17.10;96.30;;;;;;4990447;28;20190;-83
2022/09/14 15:35:39;;;;;;;1.47;1.10;;;17.00;96.30;;;;;;4963815;28;20194;-80
2022/09/14 15:38:05;;;;;;;1.50;1.00;;;17.00;96.30;;;;;;4959188;28;20663;-82
2022/09/14 15:40:31;;;;;;;5.10;1.00;;;17.00;96.30;;;;;;4976616;28;20185;-81
2022/09/14 15:42:56;;;;;;;1.93;0.80;;;17.00;96.30;;;;;;4977934;28;21191;-83
2022/09/14 15:45:22;;;;;;;1.87;0.90;;;17.00;96.30;;;;;;4959736;28;20183;-82
2022/09/14 15:47:47;;;;;;;1.10;0.90;;;16.90;96.30;;;;;;4957732;28;20210;-85
2022/09/14 15:50:13;;;;;;;1.43;1.07;;;16.90;96.30;;;;;;4956846;29;20218;-83
2022/09/14 15:52:39;;;;;;;2.60;0.90;;;16.90;96.30;;;;;;4963740;28;20181;-83
2022/09/14 15:55:06;;;;;;;1.23;1.10;;;16.90;96.30;;;;;;4993968;28;20173;-84
2022/09/14 15:57:32;;;;;;;3.43;1.17;;;16.90;96.30;;;;;;4994975;28;20549;-81
2022/09/14 15:59:58;;;;;;;1.30;1.20;;;16.90;96.30;;;;;;4977524;28;20421;-82
2022/09/14 16:02:24;;;;;;;1.20;1.00;;;16.80;96.30;;;;;;4962065;28;20438;-82
2022/09/14 16:04:49;;;;;;;1.30;1.00;;;16.80;96.30;;;;;;4978195;28;20178;-82
2022/09/14 16:07:15;;;;;;;2.33;1.10;;;16.70;96.30;;;;;;4977549;28;20571;-84
2022/09/14 16:09:41;;;;;;;2.40;1.20;;;16.60;96.30;;;;;;4960463;28;20179;-82
2022/09/14 16:12:08;;;;;;;1.40;0.90;;;16.60;96.30;;;;;;4967770;28;20256;-80
2022/09/14 16:14:34;;;;;;;1.03;0.93;;;16.50;96.30;;;;;;4973324;28;20505;-82
2022/09/14 16:17:00;;;;;;;0.90;0.70;;;16.50;96.30;;;;;;4960621;28;20446;-81
2022/09/14 16:19:25;;;;;;;2.17;1.00;;;16.40;96.30;;;;;;4957603;28;20806;-83
2022/09/14 16:21:51;;;;;;;3.73;1.00;;;16.40;96.30;;;;;;4962457;28;20678;-82
2022/09/14 16:24:18;;;;;;;1.93;1.27;;;16.40;96.30;;;;;;4956635;29;20416;-81
2022/09/14 16:26:44;;;;;;;0.90;0.73;;;16.50;96.30;;;;;;4955317;29;20590;-81
2022/09/14 16:29:12;;;;;;;1.63;0.90;;;16.50;96.30;;;;;;4957599;28;20545;-81
2022/09/14 18:00:27;;;;;;;651.17;15.70;;;16.00;96.30;;;;;;4919636;29;20482;-80
2022/09/14 18:02:52;;;;;;;239.00;8.23;;;16.00;96.30;;;;;;4934629;29;20424;-79
2022/09/14 18:05:18;;;;;;;364.50;9.73;;;16.00;96.30;;;;;;4933881;29;20609;-80
2022/09/14 18:07:44;;;;;;;157.97;7.03;;;16.00;96.30;;;;;;4935145;29;20576;-80
2022/09/14 18:10:10;;;;;;;70.63;5.33;;;15.90;96.30;;;;;;4935849;29;20453;-79
2022/09/14 18:12:35;;;;;;;158.17;6.20;;;15.90;96.30;;;;;;4932839;29;20238;-79
2022/09/14 18:15:02;;;;;;;14.73;3.20;;;15.90;96.30;;;;;;4935678;29;20183;-79
2022/09/14 18:17:28;;;;;;;58.37;4.10;;;15.90;96.30;;;;;;4934138;29;20246;-79
2022/09/14 18:19:57;;;;;;;3.40;2.70;;;15.90;96.30;;;;;;4934056;29;20431;-80
2022/09/14 18:22:26;;;;;;;3.50;3.20;;;15.90;96.30;;;;;;4935871;29;20191;-80
2022/09/14 18:24:51;;;;;;;2.00;1.90;;;15.90;96.30;;;;;;4934237;29;20423;-80
2022/09/14 18:27:17;;;;;;;2.90;2.60;;;15.90;96.30;;;;;;4934321;29;20478;-80
2022/09/14 18:29:42;;;;;;;2.63;2.43;;;15.90;96.30;;;;;;4934936;29;20346;-79
2022/09/14 18:32:08;;;;;;;5.20;2.37;;;15.90;96.30;;;;;;4935054;29;20191;-79
2022/09/14 18:34:33;;;;;;;12.73;2.70;;;15.90;96.30;;;;;;4935101;29;20180;-80
2022/09/14 18:36:59;;;;;;;2.57;2.37;;;15.90;96.30;;;;;;4933996;29;20519;-81
2022/09/14 18:39:24;;;;;;;2.50;2.30;;;15.90;96.30;;;;;;4934230;29;20565;-79
2022/09/14 18:41:52;;;;;;;3.70;2.90;;;15.90;96.30;;;;;;4947924;28;20207;-80
2022/09/14 18:44:19;;;;;;;2.70;2.20;;;15.80;96.30;;;;;;4954874;28;20185;-80
2022/09/14 18:46:45;;;;;;;16.63;3.80;;;15.80;96.30;;;;;;4969192;28;20433;-80
2022/09/14 18:49:11;;;;;;;116.07;6.77;;;15.90;96.30;;;;;;4940005;28;20550;-79
2022/09/14 18:51:37;;;;;;;386.53;13.23;;;15.90;96.30;;;;;;4933542;29;20515;-79
2022/09/14 18:54:05;;;;;;;251.90;12.27;;;15.90;96.30;;;;;;4934256;29;20511;-80
2022/09/14 18:56:32;;;;;;;111.40;6.50;;;15.90;96.30;;;;;;4934385;28;20188;-79
2022/09/14 18:58:58;;;;;;;322.20;12.80;;;15.90;96.30;;;;;;4937912;29;20930;-79
2022/09/14 19:01:24;;;;;;;439.10;17.10;;;15.90;96.30;;;;;;4938967;29;20463;-81
2022/09/14 19:03:52;;;;;;;225.60;11.97;;;15.90;96.30;;;;;;4939845;29;20437;-79
2022/09/14 19:06:18;;;;;;;418.57;14.50;;;15.90;96.30;;;;;;4939625;29;20427;-80
2022/09/14 19:08:44;;;;;;;45.17;7.53;;;15.90;96.30;;;;;;4939530;29;20533;-80
2022/09/14 19:11:16;;;;;;;31.83;6.17;;;15.80;96.30;;;;;;4940474;28;20947;-80
2022/09/14 19:13:43;;;;;;;175.97;8.57;;;15.80;96.30;;;;;;4937719;29;20431;-79
2022/09/14 19:16:11;;;;;;;37.00;4.87;;;15.80;96.30;;;;;;4939527;29;20988;-80
2022/09/14 19:18:37;;;;;;;4.93;4.43;;;15.90;96.30;;;;;;4936223;29;20431;-79
2022/09/14 19:21:05;;;;;;;6.00;3.53;;;15.80;96.30;;;;;;4920981;29;20463;-79
2022/09/14 19:23:30;;;;;;;4.47;3.07;;;15.80;96.30;;;;;;4938488;29;20443;-80
2022/09/14 19:26:01;;;;;;;3.90;2.77;;;15.80;96.30;;;;;;4939051;29;20435;-80
2022/09/14 19:28:27;;;;;;;3.10;2.90;;;15.80;96.30;;;;;;4938789;28;20290;-80
2022/09/14 19:30:52;;;;;;;3.00;2.80;;;15.90;96.30;;;;;;4939947;29;21018;-81
2022/09/14 19:33:18;;;;;;;2.93;2.67;;;15.90;96.30;;;;;;4938578;29;20184;-80
2022/09/14 19:35:43;;;;;;;3.20;2.90;;;15.90;96.30;;;;;;4941742;29;20172;-79